Time;durP1;ratioP1;P1;durP2;ratioP2;P2;SDS_P1;SDS_P2;PMS_P1;PMS_P2;Temp;Humidity;BMP_temperature;BMP_pressure;BME280_temperature;BME280_humidity;BME280_pressure;Samples;Min_cycle;Max_cycle;Signal;HPM_P1;HPM_P2
2021/09/27 00:01:15;;;;;;;;;;;14.70;99.90;;;;;;8364515;28;19908;-65
2021/09/27 00:05:17;;;;;;;;;;;14.80;99.90;;;;;;8363162;28;20007;-65
2021/09/27 00:09:17;;;;;;;;;;;14.70;99.90;;;;;;8364567;28;19958;-65
2021/09/27 00:13:19;;;;;;;;;;;14.70;99.90;;;;;;8363733;28;20456;-65
2021/09/27 00:17:20;;;;;;;;;;;15.00;99.90;;;;;;8363815;28;20537;-65
2021/09/27 00:21:25;;;;;;;;;;;14.50;99.90;;;;;;8363839;28;19916;-65
2021/09/27 00:25:27;;;;;;;;;;;14.30;99.90;;;;;;8363704;28;19962;-65
2021/09/27 00:29:27;;;;;;;;;;;14.20;99.90;;;;;;8363795;28;19909;-64
2021/09/27 00:33:28;;;;;;;;;;;14.60;99.90;;;;;;8363570;28;19924;-65
2021/09/27 00:37:28;;;;;;;;;;;14.30;99.90;;;;;;8363182;28;20445;-65
2021/09/27 00:41:29;;;;;;;;;;;14.00;99.90;;;;;;8362020;28;20003;-65
2021/09/27 00:45:31;;;;;;;;;;;13.80;99.90;;;;;;8363257;28;20283;-65
2021/09/27 00:49:32;;;;;;;;;;;13.80;99.90;;;;;;8362071;28;19908;-65
2021/09/27 00:53:38;;;;;;;;;;;13.90;99.90;;;;;;8362919;28;19924;-65
2021/09/27 00:57:39;;;;;;;;;;;14.10;99.90;;;;;;8362664;28;19913;-65
2021/09/27 01:01:40;;;;;;;;;;;14.30;99.90;;;;;;8362761;28;20016;-64
2021/09/27 01:05:44;;;;;;;;;;;14.40;99.90;;;;;;8361279;28;20016;-65
2021/09/27 01:10:03;;;;;;;;;;;14.20;99.90;;;;;;8363044;28;19913;-65
2021/09/27 01:14:12;;;;;;;;;;;14.10;99.90;;;;;;8362065;28;19924;-65
2021/09/27 01:18:31;;;;;;;;;;;14.10;99.90;;;;;;8362061;28;20425;-65
2021/09/27 01:22:50;;;;;;;;;;;14.30;99.90;;;;;;8361937;28;20007;-65
2021/09/27 01:27:09;;;;;;;;;;;14.20;99.90;;;;;;8360402;28;19916;-65
2021/09/27 01:31:13;;;;;;;;;;;14.10;99.90;;;;;;8361856;28;19909;-65
2021/09/27 01:35:16;;;;;;;;;;;14.20;99.90;;;;;;8361449;28;19912;-65
2021/09/27 01:39:16;;;;;;;;;;;14.10;99.90;;;;;;8361776;28;19916;-65
2021/09/27 01:43:17;;;;;;;;;;;14.10;99.90;;;;;;8361600;28;19908;-65
2021/09/27 01:47:41;;;;;;;;;;;14.40;99.90;;;;;;8359901;28;19913;-65
2021/09/27 01:51:44;;;;;;;;;;;14.10;99.90;;;;;;8351574;28;20389;-65
2021/09/27 01:55:57;;;;;;;;;;;14.10;99.90;;;;;;8361038;28;19913;-65
2021/09/27 01:59:57;;;;;;;;;;;14.00;99.90;;;;;;8361177;28;19920;-65
2021/09/27 02:04:06;;;;;;;;;;;13.90;99.90;;;;;;8361172;28;19916;-65
2021/09/27 02:08:07;;;;;;;;;;;13.90;99.90;;;;;;8359377;28;19908;-64
2021/09/27 02:12:10;;;;;;;;;;;14.00;99.90;;;;;;8360313;28;19931;-65
2021/09/27 02:16:14;;;;;;;;;;;13.80;99.90;;;;;;8360433;28;19970;-64
2021/09/27 02:20:26;;;;;;;;;;;13.80;99.90;;;;;;8360362;28;19913;-64
2021/09/27 02:24:38;;;;;;;;;;;13.60;99.90;;;;;;8360260;28;19913;-65
2021/09/27 02:28:39;;;;;;;;;;;13.50;99.90;;;;;;8358862;28;19908;-64
2021/09/27 02:32:44;;;;;;;;;;;13.70;99.90;;;;;;8359568;28;19920;-65
2021/09/27 02:36:57;;;;;;;;;;;13.70;99.90;;;;;;8359056;28;20287;-64
2021/09/27 02:41:10;;;;;;;;;;;13.80;99.90;;;;;;8363955;28;19913;-65
2021/09/27 02:45:10;;;;;;;;;;;13.70;99.90;;;;;;8384601;28;19927;-65
2021/09/27 02:49:13;;;;;;;;;;;13.40;99.90;;;;;;8374889;28;19912;-64
2021/09/27 02:53:15;;;;;;;;;;;13.20;99.90;;;;;;8357515;28;19917;-65
2021/09/27 02:57:21;;;;;;;;;;;13.10;99.90;;;;;;8359235;28;19909;-64
2021/09/27 03:01:36;;;;;;;;;;;13.10;99.90;;;;;;8358910;28;20467;-65
2021/09/27 03:05:55;;;;;;;;;;;13.00;99.90;;;;;;8359033;28;20400;-64
2021/09/27 03:10:14;;;;;;;;;;;12.90;99.90;;;;;;8359485;28;20387;-65
2021/09/27 03:14:14;;;;;;;;;;;13.00;99.90;;;;;;8362666;28;19916;-64
2021/09/27 03:18:19;;;;;;;;;;;13.00;99.90;;;;;;8364925;28;20513;-65
2021/09/27 03:22:33;;;;;;;;;;;13.20;99.90;;;;;;8364016;28;19978;-65
2021/09/27 03:26:50;;;;;;;;;;;13.20;99.90;;;;;;8364107;28;19916;-65
2021/09/27 03:31:09;;;;;;;;;;;13.30;99.90;;;;;;8365847;28;19908;-65
2021/09/27 03:35:14;;;;;;;;;;;13.00;99.90;;;;;;8379287;28;19917;-65
2021/09/27 03:39:29;;;;;;;;;;;13.00;99.90;;;;;;8380006;28;20293;-65
2021/09/27 03:43:49;;;;;;;;;;;12.80;99.90;;;;;;8383477;28;20457;-65
2021/09/27 03:47:49;;;;;;;;;;;;;;;;;;8380570;28;19916;-64
2021/09/27 03:51:52;;;;;;;;;;;13.00;99.90;;;;;;8377775;28;20382;-64
2021/09/27 03:55:58;;;;;;;;;;;12.60;99.90;;;;;;8364829;28;19909;-64
2021/09/27 04:00:01;;;;;;;;;;;12.50;99.90;;;;;;8364856;28;19952;-64
2021/09/27 04:04:11;;;;;;;;;;;12.90;99.90;;;;;;8363432;28;19924;-64
2021/09/27 04:08:16;;;;;;;;;;;12.60;99.90;;;;;;8364371;28;19944;-65
2021/09/27 04:12:32;;;;;;;;;;;12.40;99.90;;;;;;8362917;28;19913;-64
2021/09/27 04:16:39;;;;;;;;;;;12.20;99.90;;;;;;8363957;28;19916;-65
2021/09/27 04:20:51;;;;;;;;;;;12.00;99.90;;;;;;8370834;28;19925;-64
2021/09/27 04:25:12;;;;;;;;;;;12.10;99.90;;;;;;8371403;28;19958;-65
2021/09/27 04:29:31;;;;;;;;;;;12.10;99.90;;;;;;8362271;28;19997;-65
2021/09/27 04:33:32;;;;;;;;;;;12.10;99.90;;;;;;8362577;28;19923;-65
2021/09/27 04:37:32;;;;;;;;;;;12.20;99.90;;;;;;8363264;28;19916;-65
2021/09/27 04:41:35;;;;;;;;;;;12.10;99.90;;;;;;8363682;28;19909;-65
2021/09/27 04:45:46;;;;;;;;;;;12.00;99.90;;;;;;8379949;28;19916;-64
2021/09/27 04:50:03;;;;;;;;;;;12.20;99.90;;;;;;8373764;28;20042;-65
2021/09/27 04:54:22;;;;;;;;;;;12.20;99.90;;;;;;8363022;28;19923;-65
2021/09/27 04:58:31;;;;;;;;;;;12.00;99.90;;;;;;8360697;28;19912;-65
2021/09/27 05:02:32;;;;;;;;;;;11.90;99.90;;;;;;8380678;28;20311;-65
2021/09/27 05:06:48;;;;;;;;;;;11.70;99.90;;;;;;8395385;28;19908;-64
2021/09/27 05:11:08;;;;;;;;;;;11.60;99.90;;;;;;8395398;28;19908;-65
2021/09/27 05:15:23;;;;;;;;;;;11.60;99.90;;;;;;8395244;28;19912;-65
2021/09/27 05:19:23;;;;;;;;;;;11.70;99.90;;;;;;8376047;28;19916;-65
2021/09/27 05:23:43;;;;;;;;;;;11.60;99.90;;;;;;8361998;28;19928;-65
2021/09/27 05:27:46;;;;;;;;;;;11.90;99.90;;;;;;8361796;28;19959;-65
2021/09/27 05:32:01;;;;;;;;;;;11.70;99.90;;;;;;8361695;28;20558;-65
2021/09/27 05:36:05;;;;;;;;;;;11.50;99.90;;;;;;8361113;28;19917;-65
2021/09/27 05:40:15;;;;;;;;;;;11.60;99.90;;;;;;8360561;28;20383;-65
2021/09/27 05:44:31;;;;;;;;;;;11.60;99.90;;;;;;8361417;28;20520;-65
2021/09/27 05:48:31;;;;;;;;;;;11.50;99.90;;;;;;8361187;28;19966;-65
2021/09/27 05:52:50;;;;;;;;;;;11.60;99.90;;;;;;8391130;28;19958;-65
2021/09/27 05:56:55;;;;;;;;;;;11.80;99.90;;;;;;8393653;28;19912;-65
2021/09/27 06:01:09;;;;;;;;;;;11.80;99.90;;;;;;8393984;28;19999;-65
2021/09/27 06:05:16;;;;;;;;;;;12.00;99.90;;;;;;8367187;28;19916;-64
2021/09/27 06:09:35;;;;;;;;;;;12.20;99.90;;;;;;8359198;28;20011;-65
2021/09/27 06:13:39;;;;;;;;;;;12.40;99.90;;;;;;8374059;28;19920;-65
2021/09/27 06:17:53;;;;;;;;;;;12.60;99.90;;;;;;8370260;28;19917;-65
2021/09/27 06:22:02;;;;;;;;;;;12.70;99.90;;;;;;8360224;28;19981;-65
2021/09/27 06:26:06;;;;;;;;;;;12.80;99.90;;;;;;8375276;28;19913;-64
2021/09/27 06:30:17;;;;;;;;;;;12.90;99.90;;;;;;8375854;28;20011;-65
2021/09/27 06:34:33;;;;;;;;;;;13.00;99.90;;;;;;8364808;28;19916;-65
2021/09/27 06:38:35;;;;;;;;;;;13.20;99.90;;;;;;8376489;28;19919;-65
2021/09/27 06:42:36;;;;;;;;;;;13.40;99.90;;;;;;8372739;28;19913;-65
2021/09/27 06:46:37;;;;;;;;;;;13.50;99.90;;;;;;8374398;28;20348;-65
2021/09/27 06:50:37;;;;;;;;;;;13.70;99.90;;;;;;8373432;28;19909;-65
2021/09/27 06:54:38;;;;;;;;;;;14.10;99.90;;;;;;8370317;28;20313;-66
2021/09/27 06:58:38;;;;;;;;;;;14.10;99.90;;;;;;8368106;28;19913;-65
2021/09/27 07:02:39;;;;;;;;;;;13.90;99.90;;;;;;8372009;28;19955;-65
2021/09/27 07:06:40;;;;;;;;;;;13.90;99.90;;;;;;8373111;28;19924;-66
2021/09/27 07:10:40;;;;;;;;;;;14.20;99.90;;;;;;8374974;28;19909;-66
2021/09/27 07:14:40;;;;;;;;;;;14.60;99.90;;;;;;8381441;28;20314;-71
2021/09/27 07:18:41;;;;;;;;;;;14.80;99.90;;;;;;8372157;28;19921;-70
2021/09/27 07:22:42;;;;;;;;;;;14.70;99.90;;;;;;8383912;28;20019;-70
2021/09/27 07:26:43;;;;;;;;;;;14.80;99.90;;;;;;8374269;28;19912;-70
2021/09/27 07:30:43;;;;;;;;;;;15.10;99.90;;;;;;8373064;28;19916;-70
2021/09/27 07:34:44;;;;;;;;;;;15.30;99.90;;;;;;8366582;28;20029;-69
2021/09/27 07:38:44;;;;;;;;;;;15.70;99.90;;;;;;8356946;28;19909;-69
2021/09/27 07:42:45;;;;;;;;;;;16.00;99.90;;;;;;8358344;28;19912;-69
2021/09/27 07:46:46;;;;;;;;;;;16.20;99.90;;;;;;8355477;28;19944;-70
2021/09/27 07:50:52;;;;;;;;;;;16.30;99.90;;;;;;8361200;28;19913;-71
2021/09/27 07:54:52;;;;;;;;;;;16.50;99.90;;;;;;8384554;28;19966;-69
2021/09/27 07:58:53;;;;;;;;;;;16.80;99.90;;;;;;8370391;28;19912;-69
2021/09/27 08:02:53;;;;;;;;;;;16.60;99.90;;;;;;8389037;28;19991;-72
2021/09/27 08:06:54;;;;;;;;;;;16.90;99.90;;;;;;8376720;28;19913;-66
2021/09/27 08:10:54;;;;;;;;;;;17.10;99.90;;;;;;8377357;28;19916;-66
2021/09/27 08:14:56;;;;;;;;;;;17.20;99.90;;;;;;8387378;28;19966;-66
2021/09/27 08:18:57;;;;;;;;;;;17.40;99.90;;;;;;8372930;28;20366;-66
2021/09/27 08:22:58;;;;;;;;;;;17.70;99.90;;;;;;8367204;28;19923;-66
2021/09/27 08:26:59;;;;;;;;;;;17.70;99.90;;;;;;8364302;28;19912;-66
2021/09/27 08:31:02;;;;;;;;;;;17.70;99.90;;;;;;8364983;28;19956;-66
2021/09/27 08:35:03;;;;;;;;;;;18.00;99.90;;;;;;8370365;28;20627;-66
2021/09/27 08:39:05;;;;;;;;;;;18.10;99.90;;;;;;8368155;28;20007;-66
2021/09/27 08:43:16;;;;;;;;;;;18.20;99.90;;;;;;8393026;28;19916;-66
2021/09/27 08:47:40;;;;;;;;;;;18.10;99.90;;;;;;8385300;28;19912;-66
2021/09/27 08:51:40;;;;;;;;;;;18.70;99.90;;;;;;8360405;28;19955;-65
2021/09/27 08:55:41;;;;;;;;;;;18.60;99.90;;;;;;8391225;28;20390;-66
2021/09/27 09:00:00;;;;;;;;;;;18.20;99.90;;;;;;8375393;28;19916;-66
2021/09/27 09:04:11;;;;;;;;;;;18.50;99.90;;;;;;8374336;28;20410;-66
2021/09/27 09:08:18;;;;;;;;;;;18.70;99.90;;;;;;8373207;28;19948;-66
2021/09/27 09:12:21;;;;;;;;;;;18.90;99.90;;;;;;8376425;28;19959;-66
2021/09/27 09:16:23;;;;;;;;;;;19.00;99.90;;;;;;8376140;28;19916;-66
2021/09/27 09:20:53;;;;;;;;;;;19.50;99.90;;;;;;8374619;28;20533;-66
2021/09/27 09:24:54;;;;;;;;;;;19.70;99.90;;;;;;8363769;28;19924;-66
2021/09/27 09:28:56;;;;;;;;;;;20.00;99.90;;;;;;8375546;28;20283;-66
2021/09/27 09:32:56;;;;;;;;;;;19.80;99.90;;;;;;8377386;28;19919;-66
2021/09/27 09:37:00;;;;;;;;;;;19.40;99.90;;;;;;8376925;28;19909;-66
2021/09/27 09:41:01;;;;;;;;;;;19.40;99.90;;;;;;8370680;28;20294;-66
2021/09/27 09:45:12;;;;;;;;;;;19.70;99.90;;;;;;8358747;28;20422;-66
2021/09/27 09:49:12;;;;;;;;;;;19.90;99.90;;;;;;8358037;28;19913;-66
2021/09/27 09:53:19;;;;;;;;;;;20.00;99.90;;;;;;8365754;28;20406;-66
2021/09/27 09:57:24;;;;;;;;;;;20.30;99.90;;;;;;8377909;28;20039;-67
2021/09/27 10:01:33;;;;;;;;;;;20.80;99.90;;;;;;8383337;28;20554;-67
2021/09/27 10:05:37;;;;;;;;;;;20.90;99.90;;;;;;8369579;28;20299;-65
2021/09/27 10:09:55;;;;;;;;;;;21.30;99.90;;;;;;8369457;28;19924;-67
2021/09/27 10:13:56;;;;;;;;;;;21.60;99.90;;;;;;8370416;28;19921;-67
2021/09/27 10:18:04;;;;;;;;;;;21.60;99.90;;;;;;8375387;28;20337;-66
2021/09/27 10:22:08;;;;;;;;;;;21.80;99.90;;;;;;8393430;28;19917;-67
2021/09/27 10:26:20;;;;;;;;;;;22.00;99.90;;;;;;8388935;28;20314;-67
2021/09/27 10:30:23;;;;;;;;;;;22.20;99.90;;;;;;8378430;28;19916;-67
2021/09/27 10:34:24;;;;;;;;;;;22.30;99.90;;;;;;8371962;28;19916;-67
2021/09/27 10:38:40;;;;;;;;;;;22.30;99.90;;;;;;8370505;28;19914;-66
2021/09/27 10:42:46;;;;;;;;;;;22.60;99.90;;;;;;8363008;28;20407;-67
2021/09/27 10:46:48;;;;;;;;;;;25.10;99.90;;;;;;8392389;28;19909;-67
2021/09/27 10:51:07;;;;;;;;;;;25.90;99.90;;;;;;8373588;28;19913;-67
2021/09/27 10:55:12;;;;;;;;;;;24.90;99.90;;;;;;8367679;28;19917;-67
2021/09/27 10:59:14;;;;;;;;;;;25.10;99.90;;;;;;8376139;28;20386;-67
2021/09/27 11:03:20;;;;;;;;;;;25.50;99.90;;;;;;8359353;28;19970;-67
2021/09/27 11:07:23;;;;;;;;;;;27.00;99.90;;;;;;8370275;28;19912;-67
2021/09/27 11:11:30;;;;;;;;;;;25.60;99.90;;;;;;8376258;28;19919;-68
2021/09/27 11:15:39;;;;;;;;;;;28.10;99.90;;;;;;8375477;28;19919;-67
2021/09/27 11:19:43;;;;;;;;;;;26.90;99.90;;;;;;8367312;28;19919;-67
2021/09/27 11:23:44;;;;;;;;;;;25.10;99.90;;;;;;8369815;28;19917;-67
2021/09/27 11:28:02;;;;;;;;;;;23.90;99.90;;;;;;8364696;28;19913;-68
2021/09/27 11:32:11;;;;;;;;;;;23.60;99.90;;;;;;8386280;28;20455;-68
2021/09/27 11:36:18;;;;;;;;;;;23.50;99.90;;;;;;8396883;28;20359;-67
2021/09/27 11:40:21;;;;;;;;;;;26.10;99.90;;;;;;8391291;28;19909;-67
2021/09/27 11:44:24;;;;;;;;;;;30.10;99.60;;;;;;8373940;28;20004;-68
2021/09/27 11:48:34;;;;;;;;;;;30.20;95.60;;;;;;8377151;28;20290;-67
2021/09/27 11:52:53;;;;;;;;;;;27.60;98.30;;;;;;8380826;28;19948;-67
2021/09/27 11:56:53;;;;;;;;;;;25.70;99.90;;;;;;8391019;28;20454;-67
2021/09/27 12:01:09;;;;;;;;;;;24.40;99.90;;;;;;8357078;28;19920;-67
2021/09/27 12:05:10;;;;;;;;;;;23.60;99.90;;;;;;8376128;28;19913;-67
2021/09/27 12:09:14;;;;;;;;;;;23.00;99.90;;;;;;8364280;28;20298;-66
2021/09/27 12:13:20;;;;;;;;;;;23.80;99.90;;;;;;8363310;28;20395;-66
2021/09/27 12:17:26;;;;;;;;;;;24.20;99.90;;;;;;8373341;28;19919;-66
2021/09/27 12:21:27;;;;;;;;;;;23.50;99.90;;;;;;8380497;28;19920;-66
2021/09/27 12:25:31;;;;;;;;;;;23.50;99.90;;;;;;8378128;28;19919;-67
2021/09/27 12:29:33;;;;;;;;;;;26.30;99.90;;;;;;8370537;28;19916;-67
2021/09/27 12:33:33;;;;;;;;;;;28.60;99.70;;;;;;8378819;28;20267;-67
2021/09/27 12:37:36;;;;;;;;;;;29.40;97.90;;;;;;8378285;28;19909;-67
2021/09/27 12:41:38;;;;;;;;;;;31.80;93.50;;;;;;8379112;28;19994;-68
2021/09/27 12:45:40;;;;;;;;;;;32.30;80.70;;;;;;8377521;28;19909;-67
2021/09/27 12:49:45;;;;;;;;;;;31.10;79.70;;;;;;8375569;28;19951;-67
2021/09/27 12:53:58;;;;;;;;;;;30.00;83.70;;;;;;8377150;28;19962;-67
2021/09/27 12:58:02;;;;;;;;;;;28.90;85.30;;;;;;8375978;28;19909;-66
2021/09/27 13:02:05;;;;;;;;;;;27.70;89.70;;;;;;8377805;28;19917;-67
2021/09/27 13:06:12;;;;;;;;;;;27.40;91.50;;;;;;8393547;28;19952;-67
2021/09/27 13:10:18;;;;;;;;;;;27.00;91.70;;;;;;8395668;28;19981;-67
2021/09/27 13:14:26;;;;;;;;;;;27.10;93.10;;;;;;8394026;28;19920;-67
2021/09/27 13:18:33;;;;;;;;;;;27.40;92.50;;;;;;8383830;28;20347;-67
2021/09/27 13:22:36;;;;;;;;;;;27.50;92.00;;;;;;8363960;28;20585;-67
2021/09/27 13:26:44;;;;;;;;;;;27.80;91.80;;;;;;8371086;28;19936;-67
2021/09/27 13:30:53;;;;;;;;;;;27.20;92.30;;;;;;8362366;28;20293;-67
2021/09/27 13:34:54;;;;;;;;;;;29.20;91.50;;;;;;8391064;28;19948;-67
2021/09/27 13:38:59;;;;;;;;;;;30.80;82.60;;;;;;8387085;28;19912;-66
2021/09/27 13:43:15;;;;;;;;;;;30.10;82.70;;;;;;8393340;28;19958;-67
2021/09/27 13:47:17;;;;;;;;;;;28.30;88.20;;;;;;8388938;28;19916;-66
2021/09/27 13:51:19;;;;;;;;;;;26.70;90.50;;;;;;8361212;28;19994;-66
2021/09/27 13:55:20;;;;;;;;;;;25.60;93.60;;;;;;8359487;28;20402;-67
2021/09/27 13:59:20;;;;;;;;;;;24.80;95.50;;;;;;8381345;28;19913;-66
2021/09/27 14:03:21;;;;;;;;;;;24.40;97.10;;;;;;8360804;28;19963;-67
2021/09/27 14:07:22;;;;;;;;;;;24.50;97.70;;;;;;8360474;28;19916;-67
2021/09/27 14:11:23;;;;;;;;;;;25.10;97.20;;;;;;8359126;28;19928;-67
2021/09/27 14:15:23;;;;;;;;;;;25.40;96.80;;;;;;8379688;28;19919;-67
2021/09/27 14:19:24;;;;;;;;;;;24.90;97.70;;;;;;8364738;28;19913;-67
2021/09/27 14:23:24;;;;;;;;;;;24.40;97.80;;;;;;8374584;28;19925;-67
2021/09/27 14:27:26;;;;;;;;;;;23.90;98.80;;;;;;8391722;28;19908;-67
2021/09/27 14:31:27;;;;;;;;;;;23.70;99.90;;;;;;8387115;28;20371;-66
2021/09/27 14:35:29;;;;;;;;;;;23.40;99.90;;;;;;8374969;28;20289;-67
2021/09/27 14:39:30;;;;;;;;;;;23.40;99.90;;;;;;8361888;28;19915;-67
2021/09/27 14:43:30;;;;;;;;;;;23.20;99.90;;;;;;8392669;28;20366;-67
2021/09/27 14:47:31;;;;;;;;;;;23.40;99.90;;;;;;8387702;28;19912;-67
2021/09/27 14:51:31;;;;;;;;;;;23.30;99.90;;;;;;8368352;28;19912;-67
2021/09/27 14:55:36;;;;;;;;;;;23.00;99.90;;;;;;8385047;28;20007;-67
2021/09/27 14:59:37;;;;;;;;;;;22.40;99.90;;;;;;8383515;28;19913;-67
2021/09/27 15:03:37;;;;;;;;;;;22.30;99.90;;;;;;8372315;28;19935;-67
2021/09/27 15:07:38;;;;;;;;;;;22.20;99.90;;;;;;8391156;28;19994;-67
2021/09/27 15:11:39;;;;;;;;;;;22.10;99.90;;;;;;8381147;28;19951;-67
2021/09/27 15:15:40;;;;;;;;;;;21.90;99.90;;;;;;8390247;28;19966;-67
2021/09/27 15:19:41;;;;;;;;;;;21.70;99.90;;;;;;8370427;28;19909;-67
2021/09/27 15:23:43;;;;;;;;;;;21.40;99.90;;;;;;8358782;28;19955;-67
2021/09/27 15:27:43;;;;;;;;;;;21.20;99.90;;;;;;8370772;28;19916;-67
2021/09/27 15:31:46;;;;;;;;;;;20.80;99.90;;;;;;8391436;28;19913;-67
2021/09/27 15:35:47;;;;;;;;;;;20.80;99.90;;;;;;8367863;28;19921;-67
2021/09/27 15:39:48;;;;;;;;;;;20.70;99.90;;;;;;8358860;28;19913;-67
2021/09/27 15:43:48;;;;;;;;;;;20.50;99.90;;;;;;8363926;28;19939;-67
2021/09/27 15:47:49;;;;;;;;;;;20.50;99.90;;;;;;8364129;28;19912;-67
2021/09/27 15:51:50;;;;;;;;;;;20.50;99.90;;;;;;8383823;28;19919;-67
2021/09/27 15:55:50;;;;;;;;;;;20.50;99.90;;;;;;8376721;28;19917;-67
2021/09/27 15:59:51;;;;;;;;;;;20.60;99.90;;;;;;8369279;28;20408;-67
2021/09/27 16:03:52;;;;;;;;;;;20.60;99.90;;;;;;8391494;28;19909;-67
2021/09/27 16:07:53;;;;;;;;;;;20.50;99.90;;;;;;8362384;28;19923;-67
2021/09/27 16:11:53;;;;;;;;;;;20.40;99.90;;;;;;8359813;28;20263;-67
2021/09/27 16:15:54;;;;;;;;;;;20.30;99.90;;;;;;8389448;28;19924;-67
2021/09/27 16:19:55;;;;;;;;;;;20.20;99.90;;;;;;8379251;28;19913;-67
2021/09/27 16:23:55;;;;;;;;;;;20.10;99.90;;;;;;8374312;28;19963;-67
2021/09/27 16:27:56;;;;;;;;;;;19.90;99.90;;;;;;8368983;28;19913;-67
2021/09/27 16:31:58;;;;;;;;;;;19.70;99.90;;;;;;8378411;28;19970;-67
2021/09/27 16:35:59;;;;;;;;;;;19.60;99.90;;;;;;8388643;28;19917;-67
2021/09/27 16:39:59;;;;;;;;;;;19.50;99.90;;;;;;8367510;28;19919;-67
2021/09/27 16:44:00;;;;;;;;;;;19.40;99.90;;;;;;8369635;28;19917;-67
2021/09/27 16:48:00;;;;;;;;;;;19.40;99.90;;;;;;8366975;28;19948;-67
2021/09/27 16:52:01;;;;;;;;;;;19.20;99.90;;;;;;8372426;28;19913;-67
2021/09/27 16:56:02;;;;;;;;;;;19.00;99.90;;;;;;8365569;28;20386;-68
2021/09/27 17:00:04;;;;;;;;;;;19.00;99.90;;;;;;8388172;28;19956;-66
2021/09/27 17:04:04;;;;;;;;;;;19.40;99.90;;;;;;8375075;28;20056;-68
2021/09/27 17:08:05;;;;;;;;;;;19.10;99.90;;;;;;8372388;28;19916;-67
2021/09/27 17:12:06;;;;;;;;;;;19.00;99.90;;;;;;8380534;28;19966;-67
2021/09/27 17:20:32;;;;;;;;;;;18.90;99.90;;;;;;8366492;28;20012;-65
2021/09/27 17:24:33;;;;;;;;;;;18.70;99.90;;;;;;8378634;28;19923;-65
2021/09/27 17:28:36;;;;;;;;;;;18.40;99.90;;;;;;8390289;28;19912;-65
2021/09/27 17:32:37;;;;;;;;;;;18.30;99.90;;;;;;8378375;28;19925;-66
2021/09/27 17:36:38;;;;;;;;;;;18.10;99.90;;;;;;8373399;28;19913;-66
2021/09/27 17:40:39;;;;;;;;;;;18.10;99.90;;;;;;8373833;28;19916;-65
2021/09/27 17:44:39;;;;;;;;;;;18.10;99.90;;;;;;8372606;28;19939;-65
2021/09/27 17:48:40;;;;;;;;;;;18.10;99.90;;;;;;8365245;28;19994;-66
2021/09/27 17:52:41;;;;;;;;;;;18.10;99.90;;;;;;8368436;28;19917;-66
2021/09/27 17:56:41;;;;;;;;;;;18.20;99.90;;;;;;8365497;28;19921;-65
2021/09/27 18:00:43;;;;;;;;;;;18.30;99.90;;;;;;8373947;28;19920;-65
2021/09/27 18:04:44;;;;;;;;;;;18.30;99.90;;;;;;8373306;28;19920;-65
2021/09/27 18:08:45;;;;;;;;;;;17.90;99.90;;;;;;8372140;28;20409;-65
2021/09/27 18:12:46;;;;;;;;;;;17.60;99.90;;;;;;8371928;28;19920;-66
2021/09/27 18:16:47;;;;;;;;;;;17.40;99.90;;;;;;8371200;28;19970;-64
2021/09/27 18:20:48;;;;;;;;;;;17.80;99.90;;;;;;8368084;28;19917;-64
2021/09/27 18:24:48;;;;;;;;;;;17.70;99.90;;;;;;8371657;28;19917;-64
2021/09/27 18:28:49;;;;;;;;;;;17.50;99.90;;;;;;8370879;28;20272;-64
2021/09/27 18:32:50;;;;;;;;;;;17.40;99.90;;;;;;8372190;28;20379;-65
2021/09/27 18:36:50;;;;;;;;;;;17.30;99.90;;;;;;8373984;28;19909;-64
2021/09/27 18:40:53;;;;;;;;;;;17.20;99.90;;;;;;8369362;28;19916;-65
2021/09/27 18:44:54;;;;;;;;;;;17.50;99.90;;;;;;8374083;28;20367;-65
2021/09/27 18:48:54;;;;;;;;;;;17.20;99.90;;;;;;8368106;28;19916;-64
2021/09/27 18:52:55;;;;;;;;;;;17.10;99.90;;;;;;8385846;28;19917;-64
2021/09/27 18:56:55;;;;;;;;;;;17.30;99.90;;;;;;8378810;28;19931;-64
2021/09/27 19:00:56;;;;;;;;;;;16.90;99.90;;;;;;8370632;28;19917;-64
2021/09/27 19:04:56;;;;;;;;;;;16.90;99.90;;;;;;8374017;28;19962;-65
2021/09/27 19:08:57;;;;;;;;;;;16.80;99.90;;;;;;8372513;28;19913;-65
2021/09/27 19:12:57;;;;;;;;;;;16.80;99.90;;;;;;8365203;28;19916;-64
2021/09/27 19:16:58;;;;;;;;;;;16.60;99.90;;;;;;8360624;28;20329;-64
2021/09/27 19:21:00;;;;;;;;;;;16.50;99.90;;;;;;8368854;28;20022;-64
2021/09/27 19:25:00;;;;;;;;;;;16.60;99.90;;;;;;8364793;28;20433;-64
2021/09/27 19:29:01;;;;;;;;;;;16.70;99.90;;;;;;8370808;28;19909;-65
2021/09/27 19:33:01;;;;;;;;;;;16.60;99.90;;;;;;8369370;28;19916;-65
2021/09/27 19:37:02;;;;;;;;;;;16.60;99.90;;;;;;8379388;28;19913;-65
2021/09/27 19:41:03;;;;;;;;;;;16.50;99.90;;;;;;8369180;28;19952;-65
2021/09/27 19:45:09;;;;;;;;;;;16.50;99.90;;;;;;8373527;28;19939;-64
2021/09/27 19:49:10;;;;;;;;;;;16.50;99.90;;;;;;8355311;28;19917;-64
2021/09/27 19:53:10;;;;;;;;;;;16.40;99.90;;;;;;8363414;28;20400;-64
2021/09/27 19:57:11;;;;;;;;;;;16.30;99.90;;;;;;8379077;28;19919;-64
2021/09/27 20:01:11;;;;;;;;;;;16.10;99.90;;;;;;8374104;28;19913;-65
2021/09/27 20:05:15;;;;;;;;;;;15.90;99.90;;;;;;8380199;28;20338;-64
2021/09/27 20:09:16;;;;;;;;;;;16.10;99.90;;;;;;8380257;28;20397;-65
2021/09/27 20:13:17;;;;;;;;;;;15.90;99.90;;;;;;8388243;28;19912;-64
2021/09/27 20:17:17;;;;;;;;;;;16.10;99.90;;;;;;8388255;28;19913;-64
2021/09/27 20:21:18;;;;;;;;;;;15.80;99.90;;;;;;8363162;28;19924;-64
2021/09/27 20:25:21;;;;;;;;;;;15.50;99.90;;;;;;8375811;28;19912;-64
2021/09/27 20:29:22;;;;;;;;;;;15.50;99.90;;;;;;8378544;28;19916;-64
2021/09/27 20:33:22;;;;;;;;;;;15.40;99.90;;;;;;8378409;28;19961;-64
2021/09/27 20:37:24;;;;;;;;;;;15.30;99.90;;;;;;8373955;28;19921;-64
2021/09/27 20:41:24;;;;;;;;;;;15.20;99.90;;;;;;8363657;28;19916;-64
2021/09/27 20:45:25;;;;;;;;;;;15.10;99.90;;;;;;8362160;28;19955;-64
2021/09/27 20:49:25;;;;;;;;;;;15.00;99.90;;;;;;8363426;28;19908;-64
2021/09/27 20:53:26;;;;;;;;;;;14.90;99.90;;;;;;8363068;28;19920;-64
2021/09/27 20:57:26;;;;;;;;;;;14.90;99.90;;;;;;8360912;28;19908;-64
2021/09/27 21:01:27;;;;;;;;;;;15.00;99.90;;;;;;8363163;28;20341;-64
2021/09/27 21:05:29;;;;;;;;;;;15.10;99.90;;;;;;8360377;28;20410;-65
2021/09/27 21:09:30;;;;;;;;;;;14.90;99.90;;;;;;8362548;28;19909;-64
2021/09/27 21:13:32;;;;;;;;;;;14.80;99.90;;;;;;8362311;28;20470;-64
2021/09/27 21:17:32;;;;;;;;;;;14.60;99.90;;;;;;8362196;28;19909;-64
2021/09/27 21:21:32;;;;;;;;;;;14.70;99.90;;;;;;8362417;28;19966;-64
2021/09/27 21:25:33;;;;;;;;;;;14.50;99.90;;;;;;8371026;28;19913;-64
2021/09/27 21:29:34;;;;;;;;;;;14.50;99.90;;;;;;8395170;28;19912;-64
2021/09/27 21:33:35;;;;;;;;;;;14.50;99.90;;;;;;8395044;28;19919;-64
2021/09/27 21:37:35;;;;;;;;;;;14.40;99.90;;;;;;8394741;28;19908;-64
2021/09/27 21:41:36;;;;;;;;;;;14.40;99.90;;;;;;8394971;28;19912;-64
2021/09/27 21:45:38;;;;;;;;;;;14.40;99.90;;;;;;8394746;28;19908;-64
2021/09/27 21:49:39;;;;;;;;;;;14.40;99.90;;;;;;8373068;28;19909;-64
2021/09/27 21:53:40;;;;;;;;;;;14.30;99.90;;;;;;8361270;28;20275;-64
2021/09/27 21:57:40;;;;;;;;;;;14.30;99.90;;;;;;8361029;28;19908;-65
2021/09/27 22:01:45;;;;;;;;;;;14.20;99.90;;;;;;8361310;28;19909;-65
2021/09/27 22:05:45;;;;;;;;;;;14.00;99.90;;;;;;8359565;28;20000;-65
2021/09/27 22:09:47;;;;;;;;;;;13.90;99.90;;;;;;8359618;28;19916;-64
2021/09/27 22:13:47;;;;;;;;;;;13.80;99.90;;;;;;8359434;28;20405;-64
2021/09/27 22:17:48;;;;;;;;;;;14.10;99.90;;;;;;8360163;28;20011;-64
2021/09/27 22:21:48;;;;;;;;;;;14.20;99.90;;;;;;8359497;28;19923;-64
2021/09/27 22:25:49;;;;;;;;;;;14.30;99.90;;;;;;8360610;28;19908;-64
2021/09/27 22:29:49;;;;;;;;;;;14.50;99.90;;;;;;8360337;28;19970;-64
2021/09/27 22:33:50;;;;;;;;;;;14.40;99.90;;;;;;8360155;28;20296;-65
2021/09/27 22:37:51;;;;;;;;;;;14.30;99.90;;;;;;8359672;28;19913;-64
2021/09/27 22:41:51;;;;;;;;;;;14.20;99.90;;;;;;8360064;28;20003;-64
2021/09/27 22:45:52;;;;;;;;;;;14.30;99.90;;;;;;8360265;28;19966;-64
2021/09/27 22:49:52;;;;;;;;;;;14.20;99.90;;;;;;8359746;28;19912;-65
2021/09/27 22:53:53;;;;;;;;;;;14.00;99.90;;;;;;8359328;28;19916;-64
2021/09/27 22:57:53;;;;;;;;;;;13.90;99.90;;;;;;8358141;28;20540;-64
2021/09/27 23:01:54;;;;;;;;;;;13.80;99.90;;;;;;8359697;28;19909;-64
2021/09/27 23:05:54;;;;;;;;;;;13.80;99.90;;;;;;8359234;28;19935;-64
2021/09/27 23:09:55;;;;;;;;;;;13.90;99.90;;;;;;8359299;28;19916;-64
2021/09/27 23:13:55;;;;;;;;;;;13.80;99.90;;;;;;8358776;28;20062;-64
2021/09/27 23:17:56;;;;;;;;;;;13.60;99.90;;;;;;8358921;28;19999;-64
2021/09/27 23:21:56;;;;;;;;;;;13.60;99.90;;;;;;8359144;28;19916;-64
2021/09/27 23:25:59;;;;;;;;;;;13.90;99.90;;;;;;8359086;28;19958;-64
2021/09/27 23:29:59;;;;;;;;;;;14.10;99.90;;;;;;8362316;28;19917;-64
2021/09/27 23:34:00;;;;;;;;;;;14.00;99.90;;;;;;8365586;28;19912;-64
2021/09/27 23:38:04;;;;;;;;;;;13.60;99.90;;;;;;8365146;28;19908;-64
2021/09/27 23:42:05;;;;;;;;;;;13.40;99.90;;;;;;8364280;28;19932;-64
2021/09/27 23:46:06;;;;;;;;;;;13.10;99.90;;;;;;8365254;28;19935;-64